Time;durP1;ratioP1;P1;durP2;ratioP2;P2;SDS_P1;SDS_P2;PMS_P1;PMS_P2;Temp;Humidity;BMP_temperature;BMP_pressure;BME280_temperature;BME280_humidity;BME280_pressure;Samples;Min_cycle;Max_cycle;Signal;HPM_P1;HPM_P2
2022/04/27 07:21:52;;;;;;;19.30;9.95;;;13.30;99.90;;;;;;6150884;23;21119;-78
2022/04/27 07:24:20;;;;;;;15.32;9.10;;;13.30;99.90;;;;;;6141624;23;20001;-78
2022/04/27 07:26:46;;;;;;;19.05;9.35;;;13.40;99.90;;;;;;6183597;23;20001;-78
2022/04/27 07:29:12;;;;;;;15.30;9.00;;;13.50;99.90;;;;;;6157094;23;20059;-78
2022/04/27 07:31:38;;;;;;;13.18;8.68;;;13.50;99.90;;;;;;6183597;23;19997;-78
2022/04/27 07:34:04;;;;;;;13.98;7.68;;;13.50;99.90;;;;;;6156596;23;20009;-78
2022/04/27 07:36:29;;;;;;;12.90;6.93;;;13.50;99.90;;;;;;6156750;23;20060;-78
2022/04/27 07:38:55;;;;;;;9.57;6.47;;;13.60;99.90;;;;;;6183506;23;20079;-78
2022/04/27 07:41:21;;;;;;;9.60;6.47;;;13.70;99.90;;;;;;6156865;23;20425;-78
2022/04/27 07:43:47;;;;;;;7.53;6.05;;;13.70;99.90;;;;;;6183134;23;20429;-78
2022/04/27 07:46:13;;;;;;;12.60;7.07;;;13.70;99.90;;;;;;6181627;23;20318;-78
2022/04/27 07:48:47;;;;;;;11.95;7.47;;;13.70;99.90;;;;;;6183226;23;20011;-78
2022/04/27 07:51:14;;;;;;;14.30;7.03;;;13.80;99.90;;;;;;6156692;23;20003;-78
2022/04/27 07:53:40;;;;;;;8.35;6.47;;;13.80;99.90;;;;;;6181816;23;20001;-78
2022/04/27 07:56:05;;;;;;;10.05;6.55;;;13.80;99.90;;;;;;6181454;23;20039;-78
2022/04/27 07:58:31;;;;;;;15.15;7.05;;;13.90;99.90;;;;;;6183428;23;20076;-78
2022/04/27 08:00:57;;;;;;;12.57;6.03;;;13.90;99.90;;;;;;6156692;23;20103;-79
2022/04/27 08:03:24;;;;;;;8.38;6.68;;;13.90;99.90;;;;;;6182923;23;20005;-78
2022/04/27 08:05:49;;;;;;;13.98;6.53;;;13.90;99.90;;;;;;6156681;23;20322;-79
2022/04/27 08:08:18;;;;;;;9.93;6.63;;;13.90;99.90;;;;;;6181410;23;20001;-79
2022/04/27 08:10:44;;;;;;;8.55;7.00;;;13.90;99.90;;;;;;6183007;23;20017;-79
2022/04/27 08:13:12;;;;;;;12.50;8.02;;;13.90;99.90;;;;;;6183073;23;20004;-78
2022/04/27 08:15:38;;;;;;;10.95;7.15;;;13.90;99.90;;;;;;6183320;23;20004;-78
2022/04/27 08:18:06;;;;;;;12.43;7.82;;;13.90;99.90;;;;;;6183101;23;20059;-79
2022/04/27 08:23:23;;;;;;;14.95;9.40;;;14.00;99.90;;;;;;6182940;23;20473;-79
2022/04/27 08:25:52;;;;;;;14.90;10.68;;;14.10;99.90;;;;;;6156722;23;20015;-78
2022/04/27 08:28:19;;;;;;;15.57;11.10;;;14.20;99.90;;;;;;6156724;23;20011;-78
2022/04/27 08:30:46;;;;;;;13.25;10.00;;;14.40;99.90;;;;;;6183120;23;20001;-78
2022/04/27 08:33:13;;;;;;;19.85;11.43;;;14.50;99.90;;;;;;6182855;23;20007;-78
2022/04/27 08:35:39;;;;;;;16.23;10.50;;;14.60;99.90;;;;;;6183031;23;20000;-78
2022/04/27 08:38:06;;;;;;;21.75;12.48;;;14.70;99.90;;;;;;6156636;23;20384;-79
2022/04/27 08:40:35;;;;;;;19.27;10.45;;;14.70;99.90;;;;;;6182852;23;20005;-78
2022/04/27 08:43:01;;;;;;;16.23;11.13;;;14.70;99.90;;;;;;6182755;23;20080;-79
2022/04/27 08:45:29;;;;;;;16.65;11.57;;;14.80;99.90;;;;;;6156437;23;20079;-79
2022/04/27 08:47:55;;;;;;;17.60;11.10;;;14.90;99.90;;;;;;6182940;23;20428;-78
2022/04/27 08:50:23;;;;;;;17.27;11.30;;;14.80;99.90;;;;;;6183018;23;20076;-78
2022/04/27 08:52:49;;;;;;;17.60;10.70;;;14.70;99.90;;;;;;6182774;23;20310;-79
2022/04/27 08:55:16;;;;;;;15.40;10.90;;;14.60;99.90;;;;;;6182696;23;20008;-79
2022/04/27 08:57:43;;;;;;;18.90;11.10;;;14.60;99.90;;;;;;6182806;23;20005;-79
2022/04/27 09:00:14;;;;;;;16.08;9.65;;;14.70;99.90;;;;;;6183066;23;20069;-79
2022/04/27 09:02:40;;;;;;;15.05;10.60;;;14.70;99.90;;;;;;6182831;23;20005;-79
2022/04/27 09:05:16;;;;;;;15.18;10.55;;;14.70;99.90;;;;;;6182786;23;20005;-78
2022/04/27 09:07:44;;;;;;;15.05;9.90;;;15.00;99.90;;;;;;6182906;23;20080;-79
2022/04/27 09:10:12;;;;;;;15.13;9.80;;;15.00;99.90;;;;;;6156427;23;20005;-79
2022/04/27 09:13:10;;;;;;;13.43;8.95;;;15.10;99.90;;;;;;6182652;23;20020;-79
2022/04/27 09:15:35;;;;;;;14.23;9.07;;;15.20;99.90;;;;;;6102070;23;19997;-79
2022/04/27 09:20:56;;;;;;;13.80;9.07;;;15.20;99.90;;;;;;6184116;23;20063;-79
2022/04/27 09:23:37;;;;;;;18.95;9.80;;;15.30;99.90;;;;;;6184275;23;20321;-79
2022/04/27 09:26:19;;;;;;;13.10;8.75;;;15.40;99.90;;;;;;6182729;23;20001;-79
2022/04/27 09:28:53;;;;;;;15.25;9.07;;;15.40;99.90;;;;;;6157694;23;20012;-79
2022/04/27 09:31:37;;;;;;;14.55;9.65;;;15.40;99.90;;;;;;6183433;23;19998;-79
2022/04/27 09:37:12;;;;;;;12.52;9.52;;;15.60;99.90;;;;;;6183107;23;20020;-79
2022/04/27 09:39:38;;;;;;;13.35;9.15;;;15.60;99.90;;;;;;6183032;23;20005;-79
2022/04/27 09:42:10;;;;;;;12.48;8.48;;;15.60;99.90;;;;;;6182813;23;20076;-79
2022/04/27 09:44:38;;;;;;;15.32;9.18;;;15.70;99.90;;;;;;6156407;23;20005;-79
2022/04/27 09:47:05;;;;;;;12.60;8.80;;;15.80;99.90;;;;;;6182877;23;20063;-79
2022/04/27 09:49:39;;;;;;;12.73;8.13;;;15.90;99.90;;;;;;6156440;23;20001;-79
2022/04/27 09:52:06;;;;;;;10.93;8.80;;;15.90;99.90;;;;;;6156977;23;20012;-79
2022/04/27 09:54:37;;;;;;;11.95;8.82;;;15.90;99.90;;;;;;6158673;23;20433;-79
2022/04/27 09:57:04;;;;;;;11.25;8.05;;;15.90;99.90;;;;;;6186504;23;20080;-79
2022/04/27 09:59:51;;;;;;;13.48;8.27;;;16.10;99.90;;;;;;6186847;23;20004;-79
2022/04/27 10:02:25;;;;;;;11.13;7.07;;;16.30;99.90;;;;;;6155664;23;20292;-79
2022/04/27 10:04:53;;;;;;;7.60;6.53;;;16.40;99.90;;;;;;6184697;23;20008;-79
2022/04/27 10:07:21;;;;;;;12.25;6.60;;;16.60;99.90;;;;;;6184672;23;20001;-79
2022/04/27 10:09:49;;;;;;;12.45;7.03;;;16.70;99.90;;;;;;6158246;23;20032;-79
2022/04/27 10:12:16;;;;;;;8.93;6.68;;;16.60;99.90;;;;;;6158170;23;20027;-79
2022/04/27 10:14:42;;;;;;;9.90;6.60;;;16.70;99.90;;;;;;6184416;23;20043;-79
2022/04/27 10:17:11;;;;;;;8.38;6.05;;;16.80;99.90;;;;;;6158058;23;20042;-79
2022/04/27 10:19:36;;;;;;;14.48;6.78;;;16.90;99.90;;;;;;6184545;23;20001;-79
2022/04/27 10:22:05;;;;;;;13.18;6.65;;;17.10;99.90;;;;;;6184476;23;20008;-79
2022/04/27 10:24:34;;;;;;;6.90;5.95;;;17.00;99.90;;;;;;6184144;23;20513;-79
2022/04/27 10:27:20;;;;;;;8.90;5.90;;;17.10;99.90;;;;;;6158067;23;20044;-79
2022/04/27 10:29:52;;;;;;;9.48;6.10;;;17.30;99.90;;;;;;6158037;23;20001;-79
2022/04/27 10:32:36;;;;;;;8.02;5.93;;;17.10;99.90;;;;;;6184285;23;20025;-79
2022/04/27 10:35:19;;;;;;;8.75;5.93;;;17.10;99.90;;;;;;6157955;23;20052;-79
2022/04/27 10:37:53;;;;;;;7.28;6.57;;;17.10;99.90;;;;;;6184308;23;20012;-79
2022/04/27 10:40:34;;;;;;;8.05;6.53;;;17.30;99.90;;;;;;6157777;23;20009;-79
2022/04/27 10:43:40;;;;;;;11.35;6.38;;;17.50;99.90;;;;;;6184171;23;20007;-79
2022/04/27 10:46:38;;;;;;;9.00;5.10;;;17.60;99.90;;;;;;6153594;23;20465;-79
2022/04/27 10:49:24;;;;;;;8.00;5.85;;;17.90;99.90;;;;;;6171133;23;20008;-79
2022/04/27 10:52:03;;;;;;;9.07;6.57;;;17.90;99.90;;;;;;6157616;23;20075;-79
2022/04/27 10:54:34;;;;;;;7.97;5.63;;;18.10;99.90;;;;;;6184177;23;20437;-78
2022/04/27 10:57:15;;;;;;;6.82;5.63;;;18.30;99.90;;;;;;6157668;23;20025;-78
2022/04/27 10:59:56;;;;;;;7.93;6.18;;;18.40;99.90;;;;;;6157509;23;20455;-78
2022/04/27 11:02:39;;;;;;;9.67;6.60;;;18.50;99.90;;;;;;6184031;23;20001;-78
2022/04/27 11:05:21;;;;;;;8.23;4.95;;;18.60;99.90;;;;;;6157075;23;20295;-78
2022/04/27 11:07:54;;;;;;;;;;;18.60;99.90;;;;;;6158160;23;20029;-78
2022/04/27 11:10:21;;;;;;;8.18;5.45;;;18.50;99.90;;;;;;6183825;23;19900;-78
2022/04/27 11:12:56;;;;;;;7.78;6.03;;;18.70;99.90;;;;;;6183438;23;19993;-78
2022/04/27 11:15:26;;;;;;;10.85;4.93;;;18.70;99.90;;;;;;6183577;23;20011;-78
2022/04/27 11:17:55;;;;;;;5.65;5.07;;;18.80;99.90;;;;;;6183564;23;20005;-78
2022/04/27 11:20:34;;;;;;;6.55;5.93;;;18.80;99.90;;;;;;6183667;23;20028;-78
2022/04/27 11:23:03;;;;;;;7.78;5.13;;;18.70;99.90;;;;;;6183381;23;20017;-78
2022/04/27 11:25:33;;;;;;;9.50;5.18;;;18.60;99.90;;;;;;6183305;23;20028;-78
2022/04/27 11:27:59;;;;;;;6.50;4.90;;;18.60;99.90;;;;;;6183769;23;20586;-78
2022/04/27 11:30:27;;;;;;;6.57;5.85;;;18.50;99.90;;;;;;6183753;23;20083;-78
2022/04/27 11:32:53;;;;;;;7.43;5.85;;;18.50;99.90;;;;;;6183688;23;20001;-76
2022/04/27 11:35:22;;;;;;;6.95;5.90;;;18.70;99.90;;;;;;6183579;23;20005;-75
2022/04/27 11:37:49;;;;;;;7.80;5.32;;;18.80;99.90;;;;;;6183562;23;20000;-75
2022/04/27 11:40:17;;;;;;;6.25;5.63;;;18.90;99.90;;;;;;6183606;23;20005;-75
2022/04/27 11:42:47;;;;;;;13.95;4.93;;;19.00;99.90;;;;;;6183558;23;20512;-75
2022/04/27 11:45:18;;;;;;;5.72;5.13;;;19.20;99.90;;;;;;6183587;23;20187;-75
2022/04/27 11:47:54;;;;;;;4.97;4.40;;;19.20;99.70;;;;;;6183501;23;20417;-76
2022/04/27 11:50:19;;;;;;;5.53;4.90;;;19.30;99.00;;;;;;6183151;23;20045;-76
2022/04/27 11:52:58;;;;;;;5.93;5.07;;;19.50;98.80;;;;;;6183496;23;19997;-76
2022/04/27 11:55:24;;;;;;;5.63;4.57;;;19.40;99.90;;;;;;6183433;23;20005;-75
2022/04/27 11:57:50;;;;;;;5.63;4.93;;;19.40;99.90;;;;;;6183430;23;20428;-75
2022/04/27 12:00:25;;;;;;;6.30;4.40;;;19.50;99.90;;;;;;6156975;23;20012;-75
2022/04/27 12:02:53;;;;;;;5.47;4.32;;;19.60;98.90;;;;;;6183238;23;20009;-75
2022/04/27 12:05:29;;;;;;;4.90;4.45;;;19.70;99.80;;;;;;6183346;23;20083;-75
2022/04/27 12:07:55;;;;;;;5.68;5.10;;;19.80;99.90;;;;;;6183769;23;20005;-75
2022/04/27 12:10:20;;;;;;;5.25;4.68;;;20.00;99.90;;;;;;6183352;23;19993;-75
2022/04/27 12:12:47;;;;;;;4.88;4.47;;;20.10;98.40;;;;;;6156749;23;20005;-75
2022/04/27 12:15:14;;;;;;;4.82;4.03;;;20.30;99.90;;;;;;6183131;23;20008;-75
2022/04/27 12:17:58;;;;;;;5.03;4.57;;;20.40;99.20;;;;;;6183127;23;20011;-75
2022/04/27 12:20:29;;;;;;;4.35;3.95;;;20.40;98.50;;;;;;6183352;23;20222;-75
2022/04/27 12:23:00;;;;;;;4.82;3.95;;;20.50;97.80;;;;;;6156470;23;20037;-75
2022/04/27 12:25:33;;;;;;;4.47;4.07;;;20.60;98.50;;;;;;6183203;23;20447;-75
2022/04/27 12:28:00;;;;;;;3.95;3.65;;;20.70;97.30;;;;;;6183128;23;20001;-75
2022/04/27 12:30:26;;;;;;;5.18;4.68;;;20.80;98.70;;;;;;6156564;23;20001;-76
2022/04/27 12:32:52;;;;;;;3.92;3.63;;;20.90;97.30;;;;;;6182897;23;20001;-75
2022/04/27 12:38:12;;;;;;;5.35;3.65;;;21.00;96.40;;;;;;6183187;23;20092;-75
2022/04/27 12:40:42;;;;;;;3.45;3.20;;;21.10;96.40;;;;;;6156683;23;20011;-75
2022/04/27 12:43:07;;;;;;;3.35;3.08;;;21.20;96.60;;;;;;6183077;23;20025;-75
2022/04/27 12:45:36;;;;;;;2.88;2.67;;;21.20;95.60;;;;;;6156530;23;20012;-75
2022/04/27 12:48:04;;;;;;;3.25;3.05;;;21.50;96.40;;;;;;6156263;23;20460;-75
2022/04/27 12:50:45;;;;;;;3.92;3.08;;;21.40;94.70;;;;;;6182710;23;20004;-76
2022/04/27 12:53:11;;;;;;;3.47;2.80;;;21.40;94.70;;;;;;6156584;23;20381;-75
2022/04/27 12:55:38;;;;;;;4.00;3.47;;;21.60;94.70;;;;;;6182866;23;19997;-75
2022/04/27 12:58:04;;;;;;;3.58;3.28;;;21.70;92.70;;;;;;6182873;23;20364;-75
2022/04/27 13:00:46;;;;;;;3.00;2.80;;;21.80;93.30;;;;;;6182957;23;20080;-76
2022/04/27 13:03:12;;;;;;;3.80;2.55;;;21.80;94.30;;;;;;6182550;23;20015;-76
2022/04/27 13:05:43;;;;;;;5.72;3.67;;;22.00;95.50;;;;;;6182829;23;20001;-75
2022/04/27 13:08:10;;;;;;;3.70;3.33;;;21.80;93.10;;;;;;6182739;23;20084;-75
2022/04/27 13:13:22;;;;;;;3.30;3.00;;;21.90;92.10;;;;;;6182518;23;20039;-75
2022/04/27 13:15:49;;;;;;;3.72;3.42;;;22.00;90.80;;;;;;6157571;23;20012;-75
2022/04/27 13:18:16;;;;;;;3.20;2.90;;;22.00;90.90;;;;;;6184426;23;20089;-75
2022/04/27 13:20:42;;;;;;;3.35;3.15;;;22.10;92.10;;;;;;6184204;23;20603;-75
2022/04/27 13:23:09;;;;;;;2.92;2.72;;;22.10;92.10;;;;;;6183918;23;20448;-76
2022/04/27 13:25:35;;;;;;;2.47;2.28;;;22.10;92.30;;;;;;6184229;23;20013;-75
2022/04/27 13:28:01;;;;;;;4.53;2.50;;;22.30;91.70;;;;;;6185624;23;20031;-80
2022/04/27 13:30:27;;;;;;;3.10;2.80;;;22.50;91.20;;;;;;6187164;23;20025;-79
2022/04/27 13:32:54;;;;;;;2.83;2.60;;;22.20;87.40;;;;;;6160471;23;20092;-80
2022/04/27 13:35:20;;;;;;;3.45;2.40;;;22.00;86.70;;;;;;6187121;23;20009;-79
2022/04/27 13:37:45;;;;;;;3.30;3.10;;;22.10;89.00;;;;;;6187003;23;20068;-79
2022/04/27 13:40:11;;;;;;;3.25;3.05;;;22.20;90.30;;;;;;6186933;23;20012;-80
2022/04/27 13:42:38;;;;;;;3.40;3.10;;;22.30;89.20;;;;;;6186721;23;20005;-80
2022/04/27 13:45:05;;;;;;;4.45;3.15;;;22.40;88.60;;;;;;6186773;23;20128;-80
2022/04/27 13:47:33;;;;;;;3.10;2.72;;;22.50;86.70;;;;;;6186102;23;20004;-80
2022/04/27 13:49:58;;;;;;;4.13;2.53;;;22.50;82.70;;;;;;6186673;23;20001;-80
2022/04/27 13:52:24;;;;;;;3.38;3.08;;;22.40;82.60;;;;;;6186706;23;20643;-80
2022/04/27 13:54:50;;;;;;;2.72;2.15;;;22.40;80.00;;;;;;6186506;23;20009;-80
2022/04/27 13:57:15;;;;;;;2.00;1.90;;;22.60;82.60;;;;;;6159763;23;20047;-80
2022/04/27 13:59:41;;;;;;;2.15;1.98;;;22.80;82.00;;;;;;6186671;23;20088;-80
2022/04/27 14:02:08;;;;;;;3.78;2.30;;;22.70;74.70;;;;;;6186634;23;20009;-80
2022/04/27 14:04:34;;;;;;;2.65;2.15;;;22.70;75.00;;;;;;6186146;23;20337;-80
2022/04/27 14:07:00;;;;;;;3.90;1.98;;;22.70;75.10;;;;;;6186677;23;20324;-80
2022/04/27 14:09:26;;;;;;;2.88;1.98;;;22.80;72.00;;;;;;6160033;23;20011;-80
2022/04/27 14:14:37;;;;;;;3.38;3.10;;;22.70;75.00;;;;;;6186616;23;20072;-80
2022/04/27 14:19:47;;;;;;;4.68;3.20;;;23.00;78.00;;;;;;6186720;23;20060;-80
2022/04/27 14:22:13;;;;;;;4.85;3.40;;;23.10;77.60;;;;;;6186230;23;20001;-80
2022/04/27 14:24:39;;;;;;;4.00;3.63;;;23.20;79.30;;;;;;6185792;23;20376;-75
2022/04/27 14:27:05;;;;;;;4.05;3.75;;;23.20;77.20;;;;;;6185705;23;20035;-75
2022/04/27 14:29:31;;;;;;;4.43;4.13;;;23.40;78.50;;;;;;6185912;23;20008;-75
2022/04/27 14:32:01;;;;;;;5.65;3.95;;;23.20;80.10;;;;;;6185921;23;20004;-75
2022/04/27 14:34:28;;;;;;;5.13;3.47;;;23.10;81.30;;;;;;6159438;23;20001;-76
2022/04/27 14:36:53;;;;;;;4.15;3.75;;;23.50;84.70;;;;;;6186333;23;19997;-80
2022/04/27 14:39:19;;;;;;;4.70;3.10;;;23.40;79.40;;;;;;6159689;23;20005;-81
2022/04/27 14:41:45;;;;;;;4.13;3.58;;;23.30;79.00;;;;;;6185806;23;20001;-75
2022/04/27 14:44:12;;;;;;;5.10;4.22;;;23.30;77.70;;;;;;6186022;23;20004;-76
2022/04/27 14:46:38;;;;;;;5.05;3.63;;;23.10;76.60;;;;;;6185783;23;20063;-75
2022/04/27 14:49:05;;;;;;;3.22;2.97;;;23.30;77.80;;;;;;6185956;23;20009;-75
2022/04/27 14:51:31;;;;;;;3.67;3.28;;;23.40;75.50;;;;;;6185440;23;20001;-76
2022/04/27 14:53:58;;;;;;;6.35;3.70;;;23.60;78.20;;;;;;6185602;23;20365;-75
2022/04/27 14:56:23;;;;;;;4.57;4.15;;;23.80;75.30;;;;;;6185781;23;20057;-80
2022/04/27 14:58:49;;;;;;;5.20;3.35;;;24.00;75.00;;;;;;6186308;23;20017;-79
2022/04/27 15:01:15;;;;;;;4.70;3.72;;;24.00;74.60;;;;;;6184329;23;20073;-75
2022/04/27 15:03:40;;;;;;;3.83;3.53;;;24.20;76.80;;;;;;6183968;23;20486;-75
2022/04/27 15:06:06;;;;;;;3.53;3.33;;;24.40;75.20;;;;;;6183726;23;20009;-75
2022/04/27 15:08:32;;;;;;;3.70;3.40;;;24.40;71.50;;;;;;6157498;23;20329;-75
2022/04/27 15:10:58;;;;;;;3.92;3.63;;;24.50;73.20;;;;;;6184034;23;20007;-75
2022/04/27 15:13:23;;;;;;;5.15;3.78;;;24.20;72.20;;;;;;6183837;23;20052;-75
2022/04/27 15:15:49;;;;;;;4.57;4.18;;;24.20;74.20;;;;;;6157354;23;20013;-75
2022/04/27 15:18:16;;;;;;;6.20;5.38;;;24.10;74.30;;;;;;6183887;23;20051;-76
2022/04/27 15:23:27;;;;;;;4.28;3.95;;;24.40;72.00;;;;;;6183524;23;20405;-75
2022/04/27 15:25:53;;;;;;;4.60;4.20;;;24.80;72.40;;;;;;6183688;23;20036;-76
2022/04/27 15:28:19;;;;;;;4.88;4.28;;;24.70;70.80;;;;;;6183611;23;20044;-75
2022/04/27 15:30:45;;;;;;;4.03;3.63;;;24.80;71.70;;;;;;6183692;23;20126;-75
2022/04/27 15:33:11;;;;;;;4.28;3.88;;;24.90;70.90;;;;;;6157240;23;20197;-75
2022/04/27 15:35:37;;;;;;;3.90;3.60;;;24.80;69.30;;;;;;6183492;23;20001;-76
2022/04/27 15:38:03;;;;;;;7.63;4.15;;;25.10;70.80;;;;;;6183709;23;20055;-75
2022/04/27 15:40:30;;;;;;;4.50;3.47;;;25.30;66.70;;;;;;6183582;23;20005;-75
2022/04/27 15:43:04;;;;;;;4.80;4.00;;;25.30;66.80;;;;;;6183619;23;20008;-76
2022/04/27 15:45:30;;;;;;;4.32;3.90;;;25.30;65.40;;;;;;6183416;23;20001;-76
2022/04/27 15:47:56;;;;;;;4.68;4.10;;;25.40;65.20;;;;;;6183216;23;20001;-76
2022/04/27 15:50:23;;;;;;;6.28;4.43;;;25.40;67.00;;;;;;6157022;23;20005;-75
2022/04/27 15:52:50;;;;;;;5.03;4.38;;;25.30;65.70;;;;;;6183494;23;20005;-75
2022/04/27 15:55:17;;;;;;;4.32;3.90;;;25.30;64.40;;;;;;6183388;23;19997;-75
2022/04/27 15:57:43;;;;;;;3.92;3.63;;;25.60;65.30;;;;;;6156903;23;20113;-75
2022/04/27 16:00:12;;;;;;;3.58;3.28;;;25.60;63.50;;;;;;6183370;23;20453;-76
2022/04/27 16:02:38;;;;;;;6.80;4.00;;;26.00;65.30;;;;;;6183236;23;20008;-76
2022/04/27 16:05:05;;;;;;;3.72;3.45;;;26.10;63.40;;;;;;6183264;23;20055;-76
2022/04/27 16:07:35;;;;;;;4.68;4.25;;;26.20;63.90;;;;;;6183422;23;19997;-75
2022/04/27 16:10:02;;;;;;;5.20;4.72;;;26.00;64.00;;;;;;6156978;23;20012;-76
2022/04/27 16:12:27;;;;;;;5.18;4.68;;;26.00;64.10;;;;;;6183139;23;19997;-76
2022/04/27 16:14:53;;;;;;;6.40;4.30;;;25.90;62.90;;;;;;6183395;23;20056;-76
2022/04/27 16:17:19;;;;;;;5.88;4.43;;;25.80;62.70;;;;;;6183530;23;20123;-75
2022/04/27 16:19:45;;;;;;;5.75;4.07;;;26.00;64.30;;;;;;6183312;23;20029;-76
2022/04/27 16:24:55;;;;;;;7.97;4.10;;;26.20;63.50;;;;;;6183297;23;20020;-76
2022/04/27 16:27:21;;;;;;;4.20;3.85;;;26.40;63.50;;;;;;6156588;23;20088;-76
2022/04/27 16:29:46;;;;;;;4.63;3.85;;;26.50;61.90;;;;;;6156588;23;20000;-75
2022/04/27 16:32:12;;;;;;;9.48;5.40;;;26.30;61.00;;;;;;6156663;23;20035;-76
2022/04/27 16:34:38;;;;;;;4.65;4.25;;;26.00;59.70;;;;;;6182962;23;20000;-75
2022/04/27 16:37:04;;;;;;;6.18;4.80;;;26.40;60.40;;;;;;6156605;23;20033;-75
2022/04/27 16:39:33;;;;;;;4.85;4.22;;;26.30;60.50;;;;;;6182867;23;20059;-75
2022/04/27 16:42:00;;;;;;;6.40;4.07;;;26.40;60.10;;;;;;6182850;23;20001;-75
2022/04/27 16:44:29;;;;;;;4.88;4.00;;;26.50;59.40;;;;;;6183217;23;20001;-75
2022/04/27 16:46:55;;;;;;;6.22;4.57;;;26.50;59.70;;;;;;6182463;23;20024;-76
2022/04/27 16:49:24;;;;;;;4.70;4.22;;;26.40;58.50;;;;;;6181164;23;20008;-76
2022/04/27 16:51:50;;;;;;;5.45;4.55;;;26.40;58.80;;;;;;6180622;23;20005;-76
2022/04/27 16:54:15;;;;;;;5.15;3.83;;;26.40;60.50;;;;;;6180733;23;20007;-76
2022/04/27 16:56:41;;;;;;;4.97;3.85;;;25.80;59.30;;;;;;6181918;23;20001;-76
2022/04/27 16:59:07;;;;;;;4.25;3.85;;;25.70;61.50;;;;;;6181675;23;20005;-77
2022/04/27 17:01:33;;;;;;;5.03;4.38;;;25.60;62.20;;;;;;6181726;23;20000;-77
2022/04/27 17:03:58;;;;;;;5.43;4.60;;;25.10;60.80;;;;;;6181484;23;20429;-77
2022/04/27 17:06:24;;;;;;;4.57;3.92;;;24.80;61.30;;;;;;6182864;23;20376;-77
2022/04/27 17:08:52;;;;;;;8.18;4.60;;;24.50;64.40;;;;;;6182933;23;20009;-76
2022/04/27 17:11:18;;;;;;;4.55;4.15;;;24.20;63.60;;;;;;6182942;23;20341;-77
2022/04/27 17:13:45;;;;;;;8.52;4.28;;;23.60;64.80;;;;;;6156785;23;20017;-76
2022/04/27 17:16:12;;;;;;;3.50;3.20;;;23.50;67.90;;;;;;6182826;23;20001;-76
2022/04/27 17:18:40;;;;;;;3.70;3.40;;;23.10;70.80;;;;;;6182864;23;20001;-76
2022/04/27 17:21:07;;;;;;;3.30;3.00;;;23.00;72.90;;;;;;6182694;23;20044;-76
2022/04/27 17:23:33;;;;;;;4.38;2.90;;;22.80;73.10;;;;;;6182567;23;20440;-77
2022/04/27 17:28:43;;;;;;;4.50;3.13;;;22.40;74.80;;;;;;6182835;23;20028;-76
2022/04/27 17:31:09;;;;;;;3.22;3.03;;;22.10;76.70;;;;;;6182747;23;20421;-77
2022/04/27 17:33:37;;;;;;;3.88;2.88;;;21.80;78.30;;;;;;6182853;23;19997;-77
2022/04/27 17:36:04;;;;;;;5.22;3.35;;;21.50;81.20;;;;;;6182843;23;20109;-77
2022/04/27 17:38:30;;;;;;;4.28;3.35;;;21.30;82.60;;;;;;6182879;23;20008;-77
2022/04/27 17:40:57;;;;;;;5.05;2.95;;;21.00;84.00;;;;;;6183851;23;20005;-77
2022/04/27 17:43:23;;;;;;;7.68;2.53;;;20.80;85.40;;;;;;6183921;23;20008;-77
2022/04/27 17:45:49;;;;;;;3.53;2.83;;;20.50;86.50;;;;;;6184116;23;20001;-77
2022/04/27 17:48:15;;;;;;;3.42;3.13;;;20.40;88.30;;;;;;6157748;23;20080;-76
2022/04/27 17:50:40;;;;;;;3.45;3.15;;;20.10;89.20;;;;;;6183905;23;20007;-76
2022/04/27 17:53:07;;;;;;;6.93;2.95;;;20.00;90.20;;;;;;6183877;23;20004;-75
2022/04/27 17:55:33;;;;;;;3.17;2.88;;;19.70;91.20;;;;;;6183935;23;20016;-76
2022/04/27 17:57:59;;;;;;;6.82;3.08;;;19.60;92.10;;;;;;6157506;23;20088;-76
2022/04/27 18:00:25;;;;;;;2.88;2.67;;;19.50;92.40;;;;;;6183954;23;20001;-75
2022/04/27 18:02:50;;;;;;;2.80;2.60;;;19.40;92.90;;;;;;6157304;23;20032;-76
2022/04/27 18:05:18;;;;;;;6.57;2.85;;;19.20;93.40;;;;;;6183806;23;20008;-76
2022/04/27 18:07:45;;;;;;;2.95;2.63;;;19.00;94.10;;;;;;6157595;23;20413;-76
2022/04/27 18:10:11;;;;;;;6.28;3.03;;;18.90;94.90;;;;;;6183950;23;20051;-76
2022/04/27 18:12:41;;;;;;;3.83;3.53;;;18.70;95.30;;;;;;6183762;23;20001;-75
2022/04/27 18:15:09;;;;;;;4.75;3.28;;;18.70;95.60;;;;;;6184910;23;20046;-75
2022/04/27 18:17:35;;;;;;;3.70;3.00;;;18.50;96.10;;;;;;6185781;23;20005;-76
2022/04/27 18:20:02;;;;;;;3.83;3.40;;;18.40;96.70;;;;;;6185810;23;20024;-76
2022/04/27 18:22:29;;;;;;;6.38;4.00;;;18.30;97.20;;;;;;6159183;23;20314;-76
2022/04/27 18:24:55;;;;;;;4.28;3.88;;;18.10;97.90;;;;;;6185707;23;20001;-76
2022/04/27 18:27:21;;;;;;;6.10;3.60;;;18.00;98.10;;;;;;6185903;23;20008;-76
2022/04/27 18:29:47;;;;;;;5.00;3.60;;;17.90;98.70;;;;;;6185882;23;20001;-76
2022/04/27 18:32:14;;;;;;;5.57;3.60;;;17.80;99.10;;;;;;6159324;23;20092;-76
2022/04/27 18:34:40;;;;;;;4.80;3.97;;;17.70;99.40;;;;;;6185995;23;20079;-76
2022/04/27 18:37:06;;;;;;;4.47;3.72;;;17.60;99.80;;;;;;6185760;23;20031;-76
2022/04/27 18:39:35;;;;;;;4.68;3.85;;;17.50;99.90;;;;;;6159165;23;20005;-75
2022/04/27 18:42:01;;;;;;;4.75;4.00;;;17.40;99.90;;;;;;6159064;23;20060;-76
2022/04/27 18:50:00;;;;;;;5.60;3.95;;;17.20;99.90;;;;;;6184596;23;20040;-76
2022/04/27 18:52:29;;;;;;;4.72;4.32;;;17.10;99.90;;;;;;6185445;23;20009;-76
2022/04/27 18:54:59;;;;;;;4.65;4.00;;;17.00;99.90;;;;;;6158423;23;20387;-76
2022/04/27 18:57:26;;;;;;;5.07;4.57;;;16.90;99.90;;;;;;6185148;23;20153;-76
2022/04/27 18:59:53;;;;;;;4.30;3.90;;;16.90;99.90;;;;;;6158859;23;20005;-80
2022/04/27 19:02:21;;;;;;;7.53;4.38;;;16.80;99.90;;;;;;6159016;23;20001;-79
2022/04/27 19:04:47;;;;;;;10.57;4.70;;;16.80;99.90;;;;;;6158881;23;20001;-79
2022/04/27 19:07:13;;;;;;;7.30;4.47;;;16.70;99.90;;;;;;6185418;23;19997;-80
2022/04/27 19:09:39;;;;;;;5.85;4.15;;;16.70;99.90;;;;;;6186206;23;19997;-79
2022/04/27 19:12:06;;;;;;;5.70;4.43;;;16.70;99.90;;;;;;6185428;23;20005;-79
2022/04/27 19:14:32;;;;;;;10.18;5.07;;;16.70;99.90;;;;;;6185594;23;20436;-79
2022/04/27 19:17:01;;;;;;;8.40;4.90;;;16.60;99.90;;;;;;6135289;23;20013;-79
2022/04/27 19:19:29;;;;;;;8.48;5.07;;;16.50;99.90;;;;;;6186275;23;20396;-79
2022/04/27 19:21:55;;;;;;;6.05;5.43;;;16.40;99.90;;;;;;6186170;23;20056;-79
2022/04/27 19:24:21;;;;;;;7.28;5.15;;;16.40;99.90;;;;;;6185980;23;20017;-79
2022/04/27 19:26:49;;;;;;;7.03;5.80;;;16.30;99.90;;;;;;6185758;23;20031;-79
2022/04/27 19:29:17;;;;;;;6.65;5.55;;;16.30;99.90;;;;;;6186189;23;20001;-79
2022/04/27 19:31:44;;;;;;;5.65;4.97;;;16.20;99.90;;;;;;6186025;23;20001;-79
2022/04/27 19:34:11;;;;;;;12.20;5.38;;;16.30;99.90;;;;;;6186033;23;20005;-79
2022/04/27 19:36:37;;;;;;;8.68;5.57;;;16.20;99.90;;;;;;6134316;23;20100;-79
2022/04/27 19:39:04;;;;;;;5.75;5.15;;;16.10;99.90;;;;;;6185932;23;20028;-80
2022/04/27 19:41:30;;;;;;;7.75;5.60;;;16.10;99.90;;;;;;6185976;23;20080;-79
2022/04/27 19:43:57;;;;;;;9.00;5.30;;;15.90;99.90;;;;;;6185938;23;20080;-79
2022/04/27 19:46:30;;;;;;;7.18;4.97;;;15.90;99.90;;;;;;6184881;23;20005;-79
2022/04/27 19:48:59;;;;;;;6.50;5.35;;;15.90;99.90;;;;;;6161073;23;20044;-79
2022/04/27 19:51:30;;;;;;;6.30;5.57;;;15.80;99.90;;;;;;6159072;23;20059;-79
2022/04/27 19:53:58;;;;;;;6.55;5.53;;;15.70;99.90;;;;;;6185759;23;20036;-80
2022/04/27 19:56:27;;;;;;;6.53;5.40;;;15.70;99.90;;;;;;6185733;23;20001;-79
2022/04/27 19:58:54;;;;;;;7.97;6.03;;;15.60;99.90;;;;;;6185556;23;20571;-79
2022/04/27 20:01:22;;;;;;;8.15;5.78;;;15.60;99.90;;;;;;6134630;23;20019;-79
2022/04/27 20:03:49;;;;;;;8.73;5.90;;;15.60;99.90;;;;;;6185227;23;20080;-80
2022/04/27 20:06:15;;;;;;;17.00;9.95;;;15.60;99.90;;;;;;6183591;23;20016;-79
2022/04/27 20:08:44;;;;;;;7.07;5.60;;;15.60;99.90;;;;;;6157821;23;20445;-79
2022/04/27 20:11:13;;;;;;;8.68;6.55;;;15.50;99.90;;;;;;6184899;23;20012;-79
2022/04/27 20:13:40;;;;;;;8.20;5.78;;;15.50;99.90;;;;;;6133968;23;20096;-79
2022/04/27 20:16:09;;;;;;;8.70;5.95;;;15.50;99.90;;;;;;6183461;23;20008;-79
2022/04/27 20:18:35;;;;;;;7.35;5.65;;;15.50;99.90;;;;;;6183518;23;20067;-79
2022/04/27 20:21:02;;;;;;;7.95;6.28;;;15.40;99.90;;;;;;6183997;23;20009;-80
2022/04/27 20:23:28;;;;;;;7.78;5.80;;;15.40;99.90;;;;;;6158503;23;20013;-79
2022/04/27 20:25:55;;;;;;;7.18;5.00;;;15.30;99.90;;;;;;6185099;23;20009;-79
2022/04/27 20:28:23;;;;;;;9.93;6.00;;;15.20;99.90;;;;;;6159228;23;20076;-79
2022/04/27 20:30:51;;;;;;;7.70;5.88;;;15.20;99.90;;;;;;6184544;23;20066;-79
2022/04/27 20:33:18;;;;;;;8.05;6.10;;;15.10;99.90;;;;;;6158463;23;20433;-79
2022/04/27 20:35:48;;;;;;;9.60;6.03;;;15.00;99.90;;;;;;6185280;23;20009;-79
2022/04/27 20:38:14;;;;;;;7.32;6.00;;;15.00;99.90;;;;;;6185173;23;20132;-78
2022/04/27 20:40:40;;;;;;;8.23;5.88;;;15.00;99.90;;;;;;6158967;23;20006;-79
2022/04/27 20:43:06;;;;;;;9.77;5.55;;;14.90;99.90;;;;;;6184934;23;20001;-79
2022/04/27 20:45:33;;;;;;;8.63;5.80;;;14.80;99.90;;;;;;6184701;23;20005;-79